Flugplatz Unterschüpf (EDGU)

Hier findest Du alle Informationen zum Flugplatz Unterschüpf (EDGU).

Informationen für Piloten zum Flugplatz Unterschüpf

Hier findest Du alle relevanten Informationen, die Du als Pilot benötigst, um Unterschüpf anzufliegen.

Flugplatz: Unterschüpf ICAO-Code: EDGU
Frequenz Turm: 122,600 Mhz GAFOR Gebiet: 54
Frequenz Ground: 122,600 Mhz Mogas: ja
Platzrunde: S 2000 ft Landegebühr: -
Platzhöhe: - Sunrise: 06:47 Uhr UTC
Pisten: 09/27 - 670 m x 30 m, GRAS Sunset: 16:22 Uhr UTC

Mitglieder, die in Unterschüpf fliegen

Flugwetter am Flugplatz Unterschüpf

Die METAR Information stammen aus EDFM (83.43 km entfernt).

METAR Code:
2023/01/10 19:50
EDFM 101950Z 15005KT 9999 OVC041 07/02 Q1020

Temperatur: 5,0 °C Niederschlag: - Wind: 6,9 kt (max.: 14,5 kt in Böen)
Temperatur (min.): 2,5 °C Luftdruck: 1034 hPa Windrichtung: 324 °
Temperatur (max.): 5,4 °C Luftfeuchtigkeit: 83 % Bewölkung: 8/8

Flugschulen am Flugplatz Unterschüpf

Am Flugplatz Unterschüpf gibt es leider keine Flugschule.

Benachbarte Flugplätze und Flugschulen

Es gibt 19 weitere Flugplätze in einem Umkreis von 50 km um den Flugplatz Unterschüpf.

Jetzt anmelden

Passwort vergessen

Umfrage Archiv

Sendet Ihr ADS-B und/oder FLARM?

Ja
84.5 %
Nein
15.5 %
Stimmen: 277 | Diskussion
Anzeige: Roland Aircraft
Statistik Alle Mitglieder

Aktuell sind 45 Besucher online.

Anzeige: EasyVFR